Time;durP1;ratioP1;P1;durP2;ratioP2;P2;SDS_P1;SDS_P2;PMS_P1;PMS_P2;Temp;Humidity;BMP_temperature;BMP_pressure;BME280_temperature;BME280_humidity;BME280_pressure;Samples;Min_cycle;Max_cycle;Signal;HPM_P1;HPM_P2
2022/03/10 00:00:20;;;;;;;27.33;14.47;;;1.10;1.00;;;;;;5093774;28;20223;-69
2022/03/10 00:02:47;;;;;;;28.17;13.90;;;1.30;1.00;;;;;;5094470;28;20212;-69
2022/03/10 00:05:18;;;;;;;22.83;14.10;;;1.30;99.90;;;;;;5095067;28;20550;-69
2022/03/10 00:07:45;;;;;;;25.50;15.77;;;1.30;99.90;;;;;;5094774;28;20229;-70
2022/03/10 00:10:12;;;;;;;24.70;13.73;;;1.20;99.90;;;;;;5094808;28;20285;-70
2022/03/10 00:12:46;;;;;;;25.27;14.37;;;1.20;99.90;;;;;;5094653;28;20204;-70
2022/03/10 00:15:13;;;;;;;23.57;14.20;;;1.30;99.90;;;;;;5094110;28;20281;-70
2022/03/10 00:17:40;;;;;;;25.57;14.40;;;1.50;1.00;;;;;;5094234;28;20208;-70
2022/03/10 00:20:07;;;;;;;28.33;14.73;;;1.30;1.00;;;;;;5094590;28;20562;-70
2022/03/10 00:22:45;;;;;;;23.43;14.10;;;1.40;1.00;;;;;;5094566;28;20189;-70
2022/03/10 00:25:13;;;;;;;26.13;14.07;;;1.40;1.00;;;;;;5093953;28;20202;-70
2022/03/10 00:27:39;;;;;;;23.53;13.30;;;1.20;1.00;;;;;;5094146;28;20298;-70
2022/03/10 00:30:08;;;;;;;22.87;13.63;;;1.10;2.50;;;;;;5093787;28;20198;-70
2022/03/10 00:32:42;;;;;;;27.53;14.17;;;1.10;99.90;;;;;;5083814;28;20550;-70
2022/03/10 00:35:09;;;;;;;24.47;13.73;;;0.80;99.90;;;;;;5094403;28;20656;-70
2022/03/10 00:37:36;;;;;;;25.97;14.03;;;0.90;1.00;;;;;;5094025;28;20197;-70
2022/03/10 00:40:06;;;;;;;26.67;14.40;;;0.90;1.00;;;;;;5094323;28;20201;-70
2022/03/10 00:42:37;;;;;;;25.77;13.60;;;0.80;1.00;;;;;;5096433;28;20198;-70
2022/03/10 00:45:04;;;;;;;25.20;13.27;;;0.90;1.00;;;;;;5094553;28;20210;-70
2022/03/10 00:47:32;;;;;;;24.77;14.07;;;0.70;99.90;;;;;;5106155;28;20585;-70
2022/03/10 00:49:59;;;;;;;25.40;13.97;;;0.60;1.00;;;;;;5114726;28;20643;-70
2022/03/10 00:52:26;;;;;;;23.93;14.00;;;0.60;78.80;;;;;;5095731;28;20596;-70
2022/03/10 00:54:53;;;;;;;26.23;14.03;;;0.50;99.90;;;;;;5093920;28;20208;-70
2022/03/10 00:57:21;;;;;;;30.63;14.50;;;0.50;1.00;;;;;;5095114;28;20198;-70
2022/03/10 00:59:48;;;;;;;26.57;13.97;;;0.60;1.00;;;;;;5092687;28;20752;-70
2022/03/10 01:02:14;;;;;;;23.83;13.50;;;0.50;1.00;;;;;;5094081;28;20225;-70
2022/03/10 01:04:43;;;;;;;24.57;13.43;;;0.60;1.00;;;;;;5100143;28;20194;-70
2022/03/10 01:07:11;;;;;;;27.30;14.13;;;0.50;1.00;;;;;;5092327;28;20621;-70
2022/03/10 01:09:38;;;;;;;26.47;14.20;;;0.30;1.00;;;;;;5093203;28;20671;-70
2022/03/10 01:12:05;;;;;;;25.67;14.20;;;0.40;1.00;;;;;;5093173;28;20657;-70
2022/03/10 01:14:33;;;;;;;27.77;15.50;;;0.50;1.00;;;;;;5092456;28;20686;-70
2022/03/10 01:17:00;;;;;;;35.43;15.33;;;0.60;1.00;;;;;;5097347;28;20648;-70
2022/03/10 01:19:29;;;;;;;27.93;14.80;;;0.70;1.00;;;;;;5093597;28;20198;-70
2022/03/10 01:21:56;;;;;;;26.53;15.10;;;0.60;1.00;;;;;;5091958;28;20717;-70
2022/03/10 01:24:23;;;;;;;26.17;14.50;;;0.70;1.00;;;;;;5093132;28;20656;-70
2022/03/10 01:26:50;;;;;;;27.70;14.80;;;0.50;99.90;;;;;;5092902;28;20679;-70
2022/03/10 01:29:17;;;;;;;25.17;15.23;;;0.30;1.00;;;;;;5092914;28;20217;-70
2022/03/10 01:31:46;;;;;;;31.73;16.53;;;0.40;1.00;;;;;;5092290;28;20279;-70
2022/03/10 01:34:13;;;;;;;25.97;14.23;;;0.50;1.00;;;;;;5093056;28;20194;-70
2022/03/10 01:36:40;;;;;;;27.57;14.73;;;0.50;1.00;;;;;;5090978;28;20202;-70
2022/03/10 01:39:07;;;;;;;27.70;14.97;;;0.60;99.90;;;;;;5106575;28;20542;-70
2022/03/10 01:41:35;;;;;;;27.90;15.77;;;0.50;1.00;;;;;;5092181;28;20205;-70
2022/03/10 01:44:04;;;;;;;24.40;14.63;;;0.50;1.00;;;;;;5093120;28;20198;-70
2022/03/10 01:46:31;;;;;;;25.93;14.77;;;0.50;1.00;;;;;;5091528;28;20677;-70
2022/03/10 01:49:00;;;;;;;25.37;14.40;;;0.40;1.00;;;;;;5102454;28;20217;-70
2022/03/10 01:51:27;;;;;;;29.27;16.47;;;0.40;1.00;;;;;;5092564;28;20193;-70
2022/03/10 01:53:54;;;;;;;28.67;16.07;;;0.40;99.90;;;;;;5091708;28;20198;-70
2022/03/10 01:56:22;;;;;;;27.17;15.83;;;0.40;1.00;;;;;;5091566;28;20221;-70
2022/03/10 01:58:51;;;;;;;26.13;15.50;;;0.40;99.90;;;;;;5092476;28;20193;-70
2022/03/10 02:01:19;;;;;;;27.10;14.60;;;0.20;1.00;;;;;;5092551;28;20215;-70
2022/03/10 02:03:46;;;;;;;26.83;14.67;;;-0.10;1.00;;;;;;5092125;28;20202;-70
2022/03/10 02:06:15;;;;;;;24.97;13.87;;;-0.30;1.00;;;;;;5092281;28;20206;-70
2022/03/10 02:11:28;;;;;;;27.30;14.40;;;-0.20;1.00;;;;;;5091752;28;20276;-70
2022/03/10 02:13:55;;;;;;;24.30;14.23;;;-0.10;1.00;;;;;;5094691;28;20194;-70
2022/03/10 02:19:06;;;;;;;26.87;15.07;;;-0.20;1.00;;;;;;5105594;28;20277;-70
2022/03/10 02:21:35;;;;;;;24.63;13.80;;;-0.20;1.00;;;;;;5112124;28;20563;-71
2022/03/10 02:24:04;;;;;;;25.67;14.00;;;-0.10;1.00;;;;;;5104144;28;20223;-71
2022/03/10 02:26:31;;;;;;;25.63;13.97;;;-0.10;1.00;;;;;;5091390;28;20194;-71
2022/03/10 02:28:58;;;;;;;23.90;13.70;;;-0.20;1.00;;;;;;5091478;28;20222;-70
2022/03/10 02:31:25;;;;;;;26.37;14.03;;;-0.10;1.00;;;;;;5091989;28;20791;-70
2022/03/10 02:33:54;;;;;;;25.17;15.17;;;-0.40;99.90;;;;;;5097538;28;20203;-70
2022/03/10 02:36:21;;;;;;;25.40;14.47;;;-0.30;1.00;;;;;;5091210;28;20204;-70
2022/03/10 02:38:48;;;;;;;26.43;13.97;;;-0.20;1.00;;;;;;5097833;28;20209;-71
2022/03/10 02:41:16;;;;;;;26.53;14.40;;;0.00;99.90;;;;;;5099248;28;20207;-70
2022/03/10 02:43:43;;;;;;;24.83;12.87;;;0.00;1.00;;;;;;5092970;28;20201;-71
2022/03/10 02:46:10;;;;;;;27.47;14.77;;;0.00;1.00;;;;;;5090236;28;20656;-71
2022/03/10 02:48:37;;;;;;;24.73;13.90;;;-0.10;1.00;;;;;;5114655;28;20221;-70
2022/03/10 02:51:03;;;;;;;25.70;13.53;;;-0.10;1.00;;;;;;5096598;28;20625;-71
2022/03/10 02:53:31;;;;;;;27.77;15.90;;;-0.10;1.00;;;;;;5095847;28;20209;-71
2022/03/10 02:55:57;;;;;;;25.53;14.23;;;-0.40;1.00;;;;;;5095271;28;20201;-70
2022/03/10 02:58:26;;;;;;;26.17;13.50;;;-0.50;1.00;;;;;;5111963;28;20200;-70
2022/03/10 03:00:54;;;;;;;25.97;13.60;;;-0.40;1.00;;;;;;5081109;28;20239;-70
2022/03/10 03:03:20;;;;;;;24.27;13.13;;;-0.30;99.90;;;;;;5095329;28;20198;-70
2022/03/10 03:05:48;;;;;;;24.67;12.87;;;-0.40;99.90;;;;;;5094740;28;20212;-70
2022/03/10 03:08:15;;;;;;;26.43;14.37;;;-0.40;99.90;;;;;;5103064;28;20212;-70
2022/03/10 03:10:42;;;;;;;27.00;15.53;;;-0.40;99.90;;;;;;5107954;28;20220;-70
2022/03/10 03:13:09;;;;;;;27.40;14.00;;;-0.50;99.90;;;;;;5103793;28;20848;-70
2022/03/10 03:15:37;;;;;;;26.37;13.97;;;-0.30;99.90;;;;;;5108948;28;20560;-70
2022/03/10 03:18:04;;;;;;;27.47;14.57;;;-0.20;21.40;;;;;;5094197;28;20201;-70
2022/03/10 03:20:31;;;;;;;25.87;14.10;;;-0.10;1.00;;;;;;5110781;28;20209;-71
2022/03/10 03:22:57;;;;;;;25.93;14.03;;;0.00;1.00;;;;;;5094494;28;20208;-70
2022/03/10 03:25:24;;;;;;;25.83;14.57;;;-0.10;1.00;;;;;;5096119;28;20194;-70
2022/03/10 03:27:51;;;;;;;25.40;13.80;;;-0.10;1.00;;;;;;5100063;28;20201;-71
2022/03/10 03:30:18;;;;;;;27.00;13.93;;;-0.10;1.00;;;;;;5095214;28;20240;-70
2022/03/10 03:32:47;;;;;;;28.33;14.93;;;-0.20;1.00;;;;;;5093504;28;20204;-70
2022/03/10 03:35:15;;;;;;;26.97;14.40;;;-0.30;1.00;;;;;;5107554;28;20271;-70
2022/03/10 03:37:42;;;;;;;26.17;13.87;;;-0.10;1.00;;;;;;5094420;28;20208;-70
2022/03/10 03:40:11;;;;;;;27.80;14.90;;;-0.20;99.90;;;;;;5108668;28;20211;-70
2022/03/10 03:42:38;;;;;;;25.33;14.00;;;-0.10;99.90;;;;;;5096365;28;20231;-70
2022/03/10 03:45:06;;;;;;;25.93;13.70;;;-0.20;99.90;;;;;;5108579;28;20213;-70
2022/03/10 03:47:33;;;;;;;26.60;14.23;;;-0.30;99.90;;;;;;5100096;28;20209;-71
2022/03/10 03:50:01;;;;;;;26.27;14.13;;;-0.50;1.00;;;;;;5093635;28;20210;-70
2022/03/10 03:52:28;;;;;;;26.80;14.70;;;-0.50;1.00;;;;;;5098387;28;20292;-71
2022/03/10 03:54:55;;;;;;;28.03;15.10;;;-0.50;1.00;;;;;;5110713;28;20207;-71
2022/03/10 03:57:22;;;;;;;27.30;13.87;;;-0.30;1.00;;;;;;5100101;28;20204;-71
2022/03/10 03:59:48;;;;;;;26.60;14.70;;;-0.30;1.00;;;;;;5092922;28;20197;-71
2022/03/10 04:02:15;;;;;;;27.37;14.10;;;-0.40;1.00;;;;;;5093523;28;20209;-71
2022/03/10 04:04:42;;;;;;;30.13;14.07;;;-0.40;1.00;;;;;;5114687;28;20201;-71
2022/03/10 04:07:10;;;;;;;27.37;14.33;;;-0.50;1.00;;;;;;5101639;28;20576;-71
2022/03/10 04:09:37;;;;;;;26.13;13.83;;;-0.60;1.00;;;;;;5095964;28;20225;-71
2022/03/10 04:12:05;;;;;;;28.43;13.57;;;-0.60;1.00;;;;;;5094371;28;20256;-71
2022/03/10 04:14:32;;;;;;;25.57;14.03;;;-0.60;1.00;;;;;;5104385;28;20204;-71
2022/03/10 04:16:58;;;;;;;28.67;15.10;;;-0.30;1.00;;;;;;5093736;28;20231;-70
2022/03/10 04:19:25;;;;;;;29.97;14.77;;;-0.30;1.00;;;;;;5094744;28;20200;-71
2022/03/10 04:21:52;;;;;;;26.13;13.60;;;-0.20;1.00;;;;;;5099625;28;20204;-71
2022/03/10 04:24:20;;;;;;;25.77;13.67;;;-0.40;99.90;;;;;;5115352;28;20197;-71
2022/03/10 04:26:47;;;;;;;24.37;13.13;;;-0.60;1.00;;;;;;5115042;28;20220;-70
2022/03/10 04:29:14;;;;;;;26.30;14.77;;;-0.50;1.00;;;;;;5114629;28;20307;-71
2022/03/10 04:31:41;;;;;;;29.30;14.37;;;-0.40;99.90;;;;;;5113944;28;20740;-70
2022/03/10 04:34:09;;;;;;;28.10;14.83;;;-0.30;99.90;;;;;;5115079;28;20276;-70
2022/03/10 04:36:37;;;;;;;25.17;13.27;;;-0.30;7.30;;;;;;5113846;28;20201;-71
2022/03/10 04:39:04;;;;;;;26.70;14.47;;;-0.30;1.00;;;;;;5114685;28;20662;-71
2022/03/10 04:41:34;;;;;;;26.33;13.40;;;-0.20;1.00;;;;;;5114237;28;20215;-71
2022/03/10 04:44:01;;;;;;;23.50;12.43;;;-0.20;1.00;;;;;;5114395;28;20636;-71
2022/03/10 04:46:28;;;;;;;27.10;14.47;;;-0.30;1.00;;;;;;5112854;28;20561;-71
2022/03/10 04:48:55;;;;;;;25.30;14.03;;;-0.50;1.00;;;;;;5114291;28;20213;-71
2022/03/10 04:51:21;;;;;;;25.67;13.83;;;-0.70;21.00;;;;;;5113704;28;20211;-71
2022/03/10 04:53:48;;;;;;;23.77;13.30;;;-0.90;99.90;;;;;;5113504;28;20217;-71
2022/03/10 04:56:15;;;;;;;27.47;14.13;;;-0.80;1.00;;;;;;5113656;28;20647;-72
2022/03/10 04:58:44;;;;;;;27.00;13.53;;;-1.00;1.00;;;;;;5113497;28;20205;-74
2022/03/10 05:01:12;;;;;;;25.57;14.17;;;-1.00;1.00;;;;;;5113544;28;20534;-74
2022/03/10 05:03:39;;;;;;;24.20;13.10;;;-1.00;23.60;;;;;;5112724;28;20203;-74
2022/03/10 05:06:06;;;;;;;24.37;13.93;;;-0.90;68.30;;;;;;5113004;28;20193;-73
2022/03/10 05:08:33;;;;;;;28.17;13.53;;;-1.10;1.00;;;;;;5112489;28;20239;-74
2022/03/10 05:11:00;;;;;;;23.37;12.93;;;-1.10;99.90;;;;;;5112470;28;20221;-73
2022/03/10 05:13:27;;;;;;;25.97;12.67;;;-1.40;99.90;;;;;;5112000;28;20201;-74
2022/03/10 05:15:56;;;;;;;24.20;13.50;;;-1.40;1.00;;;;;;5113119;28;20286;-73
2022/03/10 05:18:23;;;;;;;26.97;13.60;;;-1.30;1.00;;;;;;5112796;28;20204;-73
2022/03/10 05:20:50;;;;;;;27.73;13.87;;;-1.10;1.00;;;;;;5112290;28;20304;-74
2022/03/10 05:23:17;;;;;;;25.50;13.30;;;-1.10;99.90;;;;;;5112817;28;20201;-74
2022/03/10 05:25:44;;;;;;;24.33;13.20;;;-1.30;99.90;;;;;;5093974;28;20202;-74
2022/03/10 05:28:14;;;;;;;23.13;12.77;;;-1.20;99.90;;;;;;5091568;28;20648;-73
2022/03/10 05:30:42;;;;;;;24.30;13.03;;;-1.00;1.00;;;;;;5090483;28;20628;-74
2022/03/10 05:33:11;;;;;;;23.23;13.17;;;-1.00;99.90;;;;;;5091686;28;20214;-74
2022/03/10 05:35:38;;;;;;;22.00;12.70;;;-1.00;99.90;;;;;;5092208;28;20737;-74
2022/03/10 05:38:06;;;;;;;23.80;13.93;;;-0.80;99.90;;;;;;5092219;28;20656;-74
2022/03/10 05:40:33;;;;;;;23.07;12.70;;;-0.80;99.90;;;;;;5092716;28;20201;-73
2022/03/10 05:43:00;;;;;;;26.47;12.93;;;-0.90;1.00;;;;;;5092778;28;20557;-74
2022/03/10 05:45:27;;;;;;;21.23;12.17;;;-0.90;1.00;;;;;;5091630;28;20202;-73
2022/03/10 05:47:56;;;;;;;24.50;13.73;;;-0.70;1.00;;;;;;5091557;28;20210;-74
2022/03/10 05:50:26;;;;;;;25.50;12.97;;;-0.90;1.00;;;;;;5092376;28;20608;-74
2022/03/10 05:52:54;;;;;;;25.43;12.77;;;-0.90;1.00;;;;;;5090799;28;20217;-74
2022/03/10 05:55:23;;;;;;;25.47;13.53;;;-1.00;1.00;;;;;;5091345;28;20251;-74
2022/03/10 05:57:50;;;;;;;23.97;13.03;;;-0.90;1.00;;;;;;5092096;28;20220;-74
2022/03/10 06:00:18;;;;;;;24.00;13.13;;;-1.00;1.00;;;;;;5091482;28;20202;-74
2022/03/10 06:02:45;;;;;;;25.27;13.33;;;-0.80;1.00;;;;;;5090277;28;20251;-74
2022/03/10 06:05:12;;;;;;;25.50;13.80;;;-0.80;1.00;;;;;;5090884;28;20208;-74
2022/03/10 06:07:40;;;;;;;24.37;13.60;;;-0.80;1.00;;;;;;5071214;28;20202;-73
2022/03/10 06:10:08;;;;;;;23.27;12.37;;;-0.90;1.00;;;;;;5070509;28;20276;-74
2022/03/10 06:12:35;;;;;;;24.30;13.50;;;-0.90;1.00;;;;;;5089178;28;20206;-74
2022/03/10 06:15:04;;;;;;;22.87;12.57;;;-1.00;1.00;;;;;;5105162;28;20197;-74
2022/03/10 06:17:32;;;;;;;25.17;13.37;;;-0.90;99.90;;;;;;5105816;28;20201;-73
2022/03/10 06:19:59;;;;;;;25.37;13.37;;;-0.60;99.90;;;;;;5111693;28;20662;-73
2022/03/10 06:22:30;;;;;;;26.03;13.17;;;-0.50;99.90;;;;;;5111368;28;20197;-73
2022/03/10 06:25:00;;;;;;;23.23;12.73;;;-0.40;1.00;;;;;;5111665;28;20299;-74
2022/03/10 06:27:28;;;;;;;26.43;14.00;;;-0.40;1.00;;;;;;5108141;28;20208;-74
2022/03/10 06:29:55;;;;;;;25.33;13.57;;;-0.40;28.60;;;;;;5081663;28;20213;-73
2022/03/10 06:32:23;;;;;;;23.37;13.20;;;-0.50;1.00;;;;;;5090728;28;20255;-74
2022/03/10 06:34:52;;;;;;;23.20;13.10;;;-0.30;99.90;;;;;;5089961;28;20248;-73
2022/03/10 06:37:19;;;;;;;25.20;14.37;;;-0.10;99.90;;;;;;5090669;28;20205;-73
2022/03/10 06:39:46;;;;;;;24.53;13.47;;;-0.10;1.00;;;;;;5090411;28;20201;-73
2022/03/10 06:42:15;;;;;;;25.33;13.23;;;0.00;98.90;;;;;;5091915;28;20209;-73
2022/03/10 06:44:42;;;;;;;28.57;13.77;;;0.20;99.90;;;;;;5090883;28;20232;-74
2022/03/10 06:47:10;;;;;;;28.30;14.10;;;0.40;14.10;;;;;;5089621;28;20232;-74
2022/03/10 06:49:37;;;;;;;32.27;13.50;;;0.40;1.00;;;;;;5090366;28;20237;-73
2022/03/10 06:52:05;;;;;;;26.93;13.23;;;0.50;1.00;;;;;;5090553;28;20271;-74
2022/03/10 06:54:32;;;;;;;27.97;14.53;;;0.70;1.00;;;;;;5089530;28;20214;-74
2022/03/10 06:57:00;;;;;;;29.43;14.13;;;0.60;1.00;;;;;;5090532;28;20620;-73
2022/03/10 06:59:28;;;;;;;25.77;13.93;;;0.70;1.00;;;;;;5090936;28;20202;-74
2022/03/10 07:01:55;;;;;;;35.80;14.77;;;0.80;1.00;;;;;;5091034;28;20201;-74
2022/03/10 07:04:22;;;;;;;28.67;14.83;;;0.80;1.00;;;;;;5089898;28;20210;-73
2022/03/10 07:06:49;;;;;;;29.77;14.80;;;1.00;1.00;;;;;;5090219;28;20193;-73
2022/03/10 07:09:18;;;;;;;33.30;15.13;;;1.30;1.00;;;;;;5089962;28;20275;-74
2022/03/10 07:11:45;;;;;;;27.67;15.23;;;1.30;1.00;;;;;;5089921;28;20212;-74
2022/03/10 07:14:12;;;;;;;26.70;14.37;;;1.60;1.00;;;;;;5091036;28;20202;-74
2022/03/10 07:16:41;;;;;;;26.77;14.77;;;1.60;99.90;;;;;;5090421;28;20206;-74
2022/03/10 07:19:09;;;;;;;25.00;13.20;;;1.50;99.90;;;;;;5091161;28;20210;-73
2022/03/10 07:21:38;;;;;;;28.20;14.57;;;1.50;99.90;;;;;;5090923;28;20640;-74
2022/03/10 07:24:06;;;;;;;25.77;14.57;;;1.70;99.90;;;;;;5089820;28;20216;-74
2022/03/10 07:26:33;;;;;;;32.53;15.93;;;1.90;1.00;;;;;;5089918;28;20245;-74
2022/03/10 07:29:01;;;;;;;31.47;14.97;;;2.10;1.00;;;;;;5091257;28;20644;-73
2022/03/10 07:31:28;;;;;;;25.60;15.10;;;2.30;99.90;;;;;;5089529;28;20221;-74
2022/03/10 07:33:56;;;;;;;27.73;15.47;;;2.40;1.00;;;;;;5092180;28;20212;-74
2022/03/10 07:36:24;;;;;;;25.60;15.30;;;2.70;99.90;;;;;;5093689;28;20198;-73
2022/03/10 07:38:51;;;;;;;26.80;14.30;;;3.20;99.90;;;;;;5094871;28;20334;-73
2022/03/10 07:41:18;;;;;;;25.57;15.10;;;3.10;99.90;;;;;;5093981;28;20205;-73
2022/03/10 07:43:45;;;;;;;25.93;14.73;;;3.60;1.00;;;;;;5094418;28;20205;-72
2022/03/10 07:46:12;;;;;;;26.00;13.97;;;4.60;1.00;;;;;;5093866;28;20671;-73
2022/03/10 07:48:39;;;;;;;24.60;13.80;;;5.00;99.90;;;;;;5094214;28;20193;-73
2022/03/10 07:51:08;;;;;;;21.67;13.20;;;6.10;1.00;;;;;;5094217;28;20229;-72
2022/03/10 07:53:36;;;;;;;22.40;13.40;;;6.70;99.90;;;;;;5093398;28;20206;-72
2022/03/10 07:56:04;;;;;;;25.67;13.40;;;6.60;99.90;;;;;;5094598;28;20201;-72
2022/03/10 07:58:31;;;;;;;24.73;13.83;;;5.00;1.00;;;;;;5093378;28;20256;-74
2022/03/10 08:00:58;;;;;;;25.63;14.33;;;5.50;1.00;;;;;;5094751;28;20636;-72
2022/03/10 08:03:26;;;;;;;26.17;14.10;;;4.70;99.90;;;;;;5093504;28;20232;-74
2022/03/10 08:05:53;;;;;;;23.33;14.80;;;5.20;99.90;;;;;;5093620;28;20212;-72
2022/03/10 08:08:22;;;;;;;24.37;14.27;;;5.50;1.00;;;;;;5092915;28;20263;-73
2022/03/10 08:10:49;;;;;;;24.10;14.30;;;5.10;99.90;;;;;;5093074;28;20566;-73
2022/03/10 08:13:16;;;;;;;23.87;15.00;;;4.90;42.40;;;;;;5094059;28;20251;-73
2022/03/10 08:15:43;;;;;;;25.60;15.30;;;5.50;99.90;;;;;;5094371;28;20255;-73
2022/03/10 08:18:11;;;;;;;24.40;14.77;;;5.60;1.00;;;;;;5093235;28;20260;-73
2022/03/10 08:20:39;;;;;;;25.93;15.43;;;5.80;1.00;;;;;;5093339;28;20683;-73
2022/03/10 08:23:06;;;;;;;23.67;14.40;;;6.20;1.00;;;;;;5093963;28;20225;-72
2022/03/10 08:25:36;;;;;;;24.10;14.37;;;7.20;99.90;;;;;;5093600;28;20193;-70
2022/03/10 08:28:04;;;;;;;21.00;13.37;;;6.60;99.90;;;;;;5092386;28;20236;-70
2022/03/10 08:30:31;;;;;;;22.87;13.27;;;6.30;1.00;;;;;;5092841;28;20295;-70
2022/03/10 08:32:58;;;;;;;21.97;13.50;;;6.30;1.00;;;;;;5093525;28;20614;-70
2022/03/10 08:35:25;;;;;;;22.63;13.50;;;6.10;99.90;;;;;;5093315;28;20237;-70
2022/03/10 08:37:52;;;;;;;21.73;13.97;;;6.00;1.00;;;;;;5092542;28;20201;-70
2022/03/10 08:40:19;;;;;;;21.77;13.10;;;6.40;83.90;;;;;;5092719;28;20197;-70
2022/03/10 08:42:49;;;;;;;19.83;12.53;;;6.50;1.00;;;;;;5093270;28;20202;-70
2022/03/10 08:45:16;;;;;;;20.93;12.70;;;6.50;99.90;;;;;;5092147;28;20248;-70
2022/03/10 08:47:44;;;;;;;19.67;12.20;;;6.40;99.90;;;;;;5092571;28;20259;-70
2022/03/10 08:50:12;;;;;;;22.47;11.90;;;6.30;1.00;;;;;;5093311;28;20222;-70
2022/03/10 08:52:40;;;;;;;18.13;11.73;;;6.20;1.00;;;;;;5091217;28;20210;-70
2022/03/10 08:55:08;;;;;;;19.17;11.30;;;6.30;1.00;;;;;;5092584;28;20206;-70
2022/03/10 08:57:36;;;;;;;19.37;11.80;;;6.40;99.90;;;;;;5093329;28;20198;-70
2022/03/10 09:00:06;;;;;;;18.07;10.57;;;6.70;1.00;;;;;;5092296;28;20202;-70
2022/03/10 09:02:33;;;;;;;19.40;11.80;;;6.90;99.90;;;;;;5091959;28;20652;-70
2022/03/10 09:05:00;;;;;;;18.87;10.73;;;7.20;24.10;;;;;;5093339;28;20510;-70
2022/03/10 09:07:27;;;;;;;19.17;10.70;;;7.30;1.00;;;;;;5092359;28;20548;-70
2022/03/10 09:09:55;;;;;;;16.83;10.20;;;7.50;1.00;;;;;;5092006;28;20604;-70
2022/03/10 09:12:22;;;;;;;17.87;10.47;;;7.70;1.00;;;;;;5092547;28;20201;-70
2022/03/10 09:14:49;;;;;;;15.00;9.50;;;8.00;1.00;;;;;;5092671;28;20274;-70
2022/03/10 09:17:17;;;;;;;16.03;9.37;;;8.20;99.90;;;;;;5091570;28;20202;-70
2022/03/10 09:19:44;;;;;;;12.47;7.97;;;8.30;99.90;;;;;;5092544;28;20202;-70
2022/03/10 09:22:12;;;;;;;15.20;8.80;;;8.40;1.00;;;;;;5092890;28;20210;-70
2022/03/10 09:24:39;;;;;;;14.23;8.73;;;8.70;1.00;;;;;;5091444;28;20648;-70
2022/03/10 09:27:07;;;;;;;14.73;8.27;;;8.90;18.90;;;;;;5091798;28;20278;-70
2022/03/10 09:29:34;;;;;;;13.17;8.67;;;9.10;1.00;;;;;;5092924;28;20640;-70
2022/03/10 09:32:01;;;;;;;15.20;9.13;;;9.40;1.00;;;;;;5090061;28;20282;-70
2022/03/10 09:34:29;;;;;;;16.00;9.13;;;9.70;1.00;;;;;;5091291;28;20197;-70
2022/03/10 09:36:56;;;;;;;16.17;9.13;;;9.90;1.00;;;;;;5092336;28;20248;-70
2022/03/10 09:39:23;;;;;;;15.23;9.07;;;10.00;1.00;;;;;;5091732;28;20201;-70
2022/03/10 09:41:50;;;;;;;14.37;8.97;;;10.30;1.00;;;;;;5091090;28;20210;-70
2022/03/10 09:44:19;;;;;;;13.53;8.83;;;10.20;1.00;;;;;;5091953;28;20275;-70
2022/03/10 09:46:50;;;;;;;12.27;8.33;;;10.40;1.00;;;;;;5090395;28;20197;-70
2022/03/10 09:49:17;;;;;;;13.13;8.93;;;10.30;1.00;;;;;;5092384;28;20201;-70
2022/03/10 09:51:46;;;;;;;14.60;9.00;;;10.60;1.00;;;;;;5091876;28;20252;-70
2022/03/10 09:54:13;;;;;;;12.83;8.43;;;10.70;1.00;;;;;;5091759;28;20198;-70
2022/03/10 09:56:42;;;;;;;13.43;8.70;;;10.80;1.00;;;;;;5091300;28;20201;-70
2022/03/10 09:59:09;;;;;;;13.40;8.53;;;10.70;1.00;;;;;;5091809;28;20212;-70
2022/03/10 10:01:37;;;;;;;15.53;8.63;;;10.90;1.00;;;;;;5092234;28;20611;-70
2022/03/10 10:04:04;;;;;;;12.83;8.40;;;11.00;1.00;;;;;;5090843;28;20193;-70
2022/03/10 10:06:31;;;;;;;14.37;8.30;;;11.30;1.00;;;;;;5091012;28;20719;-70
2022/03/10 10:09:00;;;;;;;17.27;8.50;;;11.30;1.00;;;;;;5091100;28;20250;-70
2022/03/10 10:11:34;;;;;;;13.13;8.30;;;11.20;1.00;;;;;;5091840;28;20679;-70
2022/03/10 10:14:01;;;;;;;14.70;8.57;;;11.50;1.00;;;;;;5089050;28;20663;-70
2022/03/10 10:16:28;;;;;;;13.97;8.17;;;11.50;1.00;;;;;;5100646;28;20256;-70
2022/03/10 10:18:56;;;;;;;12.73;7.70;;;11.60;1.00;;;;;;5111731;28;20239;-70
2022/03/10 10:21:24;;;;;;;12.87;7.97;;;11.70;1.00;;;;;;5111817;28;20567;-70
2022/03/10 10:23:54;;;;;;;12.10;7.47;;;11.70;1.00;;;;;;5111693;28;20197;-70
2022/03/10 10:26:26;;;;;;;15.03;8.27;;;11.30;1.00;;;;;;5100521;28;20202;-70
2022/03/10 10:28:54;;;;;;;11.70;8.13;;;11.50;1.00;;;;;;5088240;28;20574;-70
2022/03/10 10:31:22;;;;;;;12.43;7.97;;;11.50;1.00;;;;;;5112146;28;20231;-70
2022/03/10 10:33:59;;;;;;;14.47;8.50;;;11.70;1.00;;;;;;5109857;28;20228;-70
2022/03/10 10:36:28;;;;;;;11.60;7.73;;;11.90;1.00;;;;;;5110715;28;20666;-70
2022/03/10 10:38:57;;;;;;;13.67;7.50;;;12.10;1.00;;;;;;5110731;28;20295;-70
2022/03/10 10:41:27;;;;;;;13.10;7.93;;;11.90;1.00;;;;;;5111717;28;20204;-70
2022/03/10 10:43:56;;;;;;;11.83;7.50;;;11.70;1.00;;;;;;5111737;28;20205;-70
2022/03/10 10:46:29;;;;;;;12.10;8.10;;;12.00;1.00;;;;;;5109230;28;20197;-70
2022/03/10 10:48:57;;;;;;;12.30;7.30;;;12.20;1.00;;;;;;5111229;28;20638;-70
2022/03/10 10:51:32;;;;;;;12.43;8.20;;;12.10;1.00;;;;;;5110477;28;20221;-70
2022/03/10 10:54:01;;;;;;;11.00;7.73;;;12.30;1.00;;;;;;5110882;28;20230;-70
2022/03/10 10:56:30;;;;;;;11.83;7.47;;;12.10;1.00;;;;;;5111531;28;20205;-69
2022/03/10 10:59:00;;;;;;;13.43;8.17;;;12.10;1.00;;;;;;5110928;28;20614;-69
2022/03/10 11:01:36;;;;;;;11.73;7.40;;;12.20;1.00;;;;;;5111837;28;20209;-69
2022/03/10 11:04:05;;;;;;;15.33;8.77;;;12.00;1.00;;;;;;5110430;28;20226;-69
2022/03/10 11:06:34;;;;;;;12.17;8.33;;;12.00;1.00;;;;;;5110481;28;20201;-69
2022/03/10 11:09:02;;;;;;;12.17;7.97;;;12.00;1.00;;;;;;5112133;28;20209;-69
2022/03/10 11:11:32;;;;;;;13.90;8.43;;;12.20;1.00;;;;;;5115684;28;20231;-69
2022/03/10 11:14:00;;;;;;;14.57;8.63;;;12.40;1.00;;;;;;5115122;28;20227;-69
2022/03/10 11:16:27;;;;;;;12.73;8.47;;;12.30;1.00;;;;;;5115679;28;20209;-69
2022/03/10 11:18:54;;;;;;;13.97;8.13;;;12.00;1.00;;;;;;5113935;28;20200;-69
2022/03/10 11:21:45;;;;;;;15.00;8.20;;;12.30;1.00;;;;;;5114924;28;20627;-69
2022/03/10 11:24:42;;;;;;;16.10;8.80;;;12.30;1.00;;;;;;5114852;28;20216;-69
2022/03/10 11:27:13;;;;;;;14.63;8.73;;;12.50;1.00;;;;;;5101860;28;20209;-69
2022/03/10 11:29:42;;;;;;;14.00;8.50;;;12.30;1.00;;;;;;5094946;28;20236;-69
2022/03/10 11:32:12;;;;;;;12.63;7.93;;;12.60;1.00;;;;;;5093990;28;20225;-69
2022/03/10 11:34:50;;;;;;;13.20;7.77;;;12.70;1.00;;;;;;5094900;28;20201;-69
2022/03/10 11:37:52;;;;;;;14.20;8.27;;;12.80;1.00;;;;;;5093879;28;20244;-69
2022/03/10 11:40:38;;;;;;;15.53;8.53;;;12.70;1.00;;;;;;5084157;28;20211;-69
2022/03/10 11:43:07;;;;;;;15.37;8.40;;;13.00;1.00;;;;;;5080717;28;20706;-69
2022/03/10 11:45:34;;;;;;;13.00;8.67;;;13.10;1.00;;;;;;5093623;28;20201;-69
2022/03/10 11:48:43;;;;;;;13.27;8.47;;;13.10;1.00;;;;;;5093734;28;20213;-69
2022/03/10 11:51:12;;;;;;;15.67;8.43;;;13.00;1.00;;;;;;5071644;28;20264;-69
2022/03/10 11:54:07;;;;;;;12.73;8.30;;;13.30;1.00;;;;;;5110996;28;20216;-69
2022/03/10 11:57:07;;;;;;;13.03;7.83;;;13.20;1.00;;;;;;5095544;28;20223;-69
2022/03/10 11:59:50;;;;;;;12.43;7.73;;;13.10;1.00;;;;;;5114501;28;20247;-69
2022/03/10 12:02:46;;;;;;;14.17;8.17;;;13.60;1.00;;;;;;5114771;28;20201;-69
2022/03/10 12:05:14;;;;;;;14.07;7.97;;;13.50;1.00;;;;;;5067694;28;20204;-69
2022/03/10 12:07:43;;;;;;;13.47;8.30;;;13.80;1.00;;;;;;5113256;28;20209;-69
2022/03/10 12:10:13;;;;;;;13.53;7.43;;;14.40;1.00;;;;;;5114512;28;20286;-69
2022/03/10 12:12:42;;;;;;;11.33;7.63;;;14.40;1.00;;;;;;5113320;28;20271;-69
2022/03/10 12:15:51;;;;;;;11.87;8.10;;;13.70;1.00;;;;;;5113956;28;20546;-69
2022/03/10 12:18:44;;;;;;;14.87;8.70;;;13.70;1.00;;;;;;5113151;28;20643;-69
2022/03/10 12:21:22;;;;;;;13.07;7.30;;;13.60;1.00;;;;;;5113885;28;20697;-69
2022/03/10 12:23:53;;;;;;;12.27;7.67;;;13.70;1.00;;;;;;5113032;28;20655;-70
2022/03/10 12:26:31;;;;;;;15.93;8.43;;;14.40;1.00;;;;;;5113956;28;20287;-69
2022/03/10 12:29:00;;;;;;;11.97;7.77;;;15.30;1.00;;;;;;5112229;28;20208;-69
2022/03/10 12:31:29;;;;;;;13.30;7.90;;;14.30;1.00;;;;;;5093123;28;20249;-69
2022/03/10 12:33:58;;;;;;;15.63;8.93;;;14.00;1.00;;;;;;5092488;28;20204;-69
2022/03/10 12:36:31;;;;;;;15.27;9.30;;;14.10;1.00;;;;;;5093384;28;20448;-69
2022/03/10 12:39:00;;;;;;;16.33;9.17;;;14.50;1.00;;;;;;5092898;28;20660;-69
2022/03/10 12:41:29;;;;;;;15.43;8.33;;;14.70;1.00;;;;;;5093803;28;20243;-69
2022/03/10 12:43:56;;;;;;;12.93;8.30;;;14.70;1.00;;;;;;5093614;28;20208;-69
2022/03/10 12:46:24;;;;;;;18.80;10.17;;;15.80;1.00;;;;;;5099816;28;20556;-69
2022/03/10 12:49:01;;;;;;;15.10;9.10;;;15.20;1.00;;;;;;5112133;28;20646;-69
2022/03/10 12:51:30;;;;;;;14.60;8.80;;;14.60;1.00;;;;;;5112885;28;20220;-70
2022/03/10 12:53:58;;;;;;;15.13;9.30;;;15.20;1.00;;;;;;5111744;28;20217;-69